Harrisburg, PA (17108)

10:10 AM EDT on May 22, 2015 (GMT -0400)
Bellevue Park | | Change Station
CLOSE
Current Station
Personal Weather Station
Location: Harrisburg, PA
Elevation: 498 ft
Nearby Weather Stations

Elev 498 ft 40.27 °N, 76.85 °W | Updated 23 seconds ago

Clear
Clear
62.2 °F
Feels Like 62.2 °F
N
0.0
Wind Variable Wind from NNE
Gusts 3.0 mph

Today
High -- | Low -- °F
--% Chance of Precip.
Yesterday
High -- | Low -- °F
Precip. -- in
5:45 AM 8:22 PM
Waxing Crescent, 21% visible
Pressure 30.03 in
Visibility 10.0 miles
Clouds Clear
Dew Point 44 °F
Humidity 52%
Rainfall 0.00 in
Snow Depth Not available.
UV 6 out of 12
Pollen 9.10 out of 12
Air Quality Not available.
Flu Activity Sporadic
METAR KMDT 221356Z 29012KT 10SM CLR 18/06 A3003 RMK AO2 SLP169 T01780061

More Conditions Fewer Conditions

Pressure 30.03 in
Visibility 10.0 miles
Clouds Clear
Dew Point 44 °F
Humidity 52%
Rainfall 0.00 in
Snow Depth Not available.
UV 6 out of 12
Pollen 9.10 out of 12
Air Quality Not available.
Flu Activity Sporadic
METAR KMDT 221356Z 29012KT 10SM CLR 18/06 A3003 RMK AO2 SLP169 T01780061

More Conditions Fewer Conditions

10-Day Weather Forecast

Almanac

Astronomy

May. 22, 2015 Rise Set
Actual Time
Civil Twilight
Nautical Twilight
Astronomical Twilight
Moon
Length of Visible Light
Length of Day
Tomorrow will be .
, % of the Moon is Illuminated

Today's Extremes

State Highs State Lows

Community

WunderPhotos

Upload Photos

1,823,225 photos uploaded!

WunderBlogs® & News

Nearby

Air Quality

  Air Quality AQ Index Pollutant
Not available.

Snow Depth

Station Depth Elevation

Earthquake Activity

City Distance Mag. Time & Date
Minimum magnitude displayed is 2.5.

Coastal Water Temperatures

Place Temperature

Stations

Nearby Weather Stations

Station Location Temp. Windchill Dew Point Humidity Wind Precip. Elev Updated Type